DAAJ/DJG METAR and TAF weather

Enter ICAO airport designator
Station Type Date Time Source
DAAJ METAR 2018/01/22 11:00 UTC NOAA

DAAJ 221100Z 31002KT CAVOK 16/04 Q1025


Station Type Date Time Source
DAAJ Decoded METAR 2018/01/22 11:00 UTC NOAA

Djanet, Algeria (DAAJ) 24-33N 009-28E 1054M
Jan 22, 2018 - 06:00 AM EST / 2018.01.22 1100 UTC
Wind: from the NW (310 degrees) at 2 MPH (2 KT):0
Visibility: greater than 7 mile(s):0
Temperature: 60 F (16 C)
Dew Point: 39 F (4 C)
Relative Humidity: 44%
Pressure (altimeter): 30.27 in. Hg (1025 hPa)
ob: DAAJ 221100Z 31002KT CAVOK 16/04 Q1025
cycle: 11

Station Type Date Time Source
DAAJ TAF 2018/01/22 12:33 UTC NOAA

TAF DAAJ 221100Z 2212/2312 VRB02KT CAVOK
TEMPO 2216/2220 03010KT


Example: see airport list